sensor_id;sensor_type;location;lat;lon;timestamp;P1;durP1;ratioP1;P2;durP2;ratioP2
846;SDS011;410;48.954;9.474;2022-10-03T00:01:57;15.40;;;12.07;;
846;SDS011;410;48.954;9.474;2022-10-03T00:04:08;16.30;;;11.93;;
846;SDS011;410;48.954;9.474;2022-10-03T00:06:23;13.33;;;11.07;;
846;SDS011;410;48.954;9.474;2022-10-03T00:11:06;13.03;;;11.60;;
846;SDS011;410;48.954;9.474;2022-10-03T00:13:18;15.97;;;12.60;;
846;SDS011;410;48.954;9.474;2022-10-03T00:15:23;16.50;;;12.60;;
846;SDS011;410;48.954;9.474;2022-10-03T00:17:29;15.57;;;13.50;;
846;SDS011;410;48.954;9.474;2022-10-03T00:19:43;16.17;;;12.13;;
846;SDS011;410;48.954;9.474;2022-10-03T00:21:54;14.33;;;11.60;;
846;SDS011;410;48.954;9.474;2022-10-03T00:24:08;15.53;;;12.17;;
846;SDS011;410;48.954;9.474;2022-10-03T00:26:18;13.53;;;11.77;;
846;SDS011;410;48.954;9.474;2022-10-03T00:28:43;12.20;;;10.70;;
846;SDS011;410;48.954;9.474;2022-10-03T00:30:56;15.53;;;11.47;;
846;SDS011;410;48.954;9.474;2022-10-03T00:33:11;12.50;;;10.40;;
846;SDS011;410;48.954;9.474;2022-10-03T00:35:23;19.23;;;11.37;;
846;SDS011;410;48.954;9.474;2022-10-03T00:37:35;15.07;;;12.00;;
846;SDS011;410;48.954;9.474;2022-10-03T00:39:44;13.57;;;11.87;;
846;SDS011;410;48.954;9.474;2022-10-03T00:44:46;18.43;;;13.30;;
846;SDS011;410;48.954;9.474;2022-10-03T00:52:40;17.93;;;12.80;;
846;SDS011;410;48.954;9.474;2022-10-03T00:54:54;14.53;;;12.17;;
846;SDS011;410;48.954;9.474;2022-10-03T00:57:08;15.40;;;12.60;;
846;SDS011;410;48.954;9.474;2022-10-03T00:59:25;16.77;;;12.90;;
846;SDS011;410;48.954;9.474;2022-10-03T01:01:43;14.57;;;12.70;;
846;SDS011;410;48.954;9.474;2022-10-03T01:03:49;16.00;;;12.90;;
846;SDS011;410;48.954;9.474;2022-10-03T01:06:00;15.00;;;12.97;;
846;SDS011;410;48.954;9.474;2022-10-03T01:10:49;15.77;;;12.60;;
846;SDS011;410;48.954;9.474;2022-10-03T01:12:59;17.17;;;13.03;;
846;SDS011;410;48.954;9.474;2022-10-03T01:15:12;17.03;;;13.17;;
846;SDS011;410;48.954;9.474;2022-10-03T01:17:25;16.20;;;13.03;;
846;SDS011;410;48.954;9.474;2022-10-03T01:19:45;15.30;;;12.20;;
846;SDS011;410;48.954;9.474;2022-10-03T01:22:04;15.13;;;12.00;;
846;SDS011;410;48.954;9.474;2022-10-03T01:26:51;16.20;;;12.73;;
846;SDS011;410;48.954;9.474;2022-10-03T01:28:59;18.80;;;13.63;;
846;SDS011;410;48.954;9.474;2022-10-03T01:31:22;16.43;;;13.37;;
846;SDS011;410;48.954;9.474;2022-10-03T01:33:29;15.23;;;13.20;;
846;SDS011;410;48.954;9.474;2022-10-03T01:35:35;18.20;;;14.37;;
846;SDS011;410;48.954;9.474;2022-10-03T01:37:46;16.77;;;13.37;;
846;SDS011;410;48.954;9.474;2022-10-03T01:39:54;15.30;;;12.53;;
846;SDS011;410;48.954;9.474;2022-10-03T01:42:00;15.50;;;12.60;;
846;SDS011;410;48.954;9.474;2022-10-03T01:44:11;16.20;;;13.00;;
846;SDS011;410;48.954;9.474;2022-10-03T01:46:17;19.07;;;14.63;;
846;SDS011;410;48.954;9.474;2022-10-03T01:48:25;18.20;;;14.10;;
846;SDS011;410;48.954;9.474;2022-10-03T01:50:33;20.40;;;14.53;;
846;SDS011;410;48.954;9.474;2022-10-03T01:52:40;20.30;;;14.70;;
846;SDS011;410;48.954;9.474;2022-10-03T01:54:49;20.00;;;14.73;;
846;SDS011;410;48.954;9.474;2022-10-03T01:56:59;17.03;;;13.43;;
846;SDS011;410;48.954;9.474;2022-10-03T01:59:06;20.63;;;14.30;;
846;SDS011;410;48.954;9.474;2022-10-03T02:01:14;20.07;;;14.60;;
846;SDS011;410;48.954;9.474;2022-10-03T02:03:23;19.10;;;15.17;;
846;SDS011;410;48.954;9.474;2022-10-03T02:05:34;18.80;;;14.60;;
846;SDS011;410;48.954;9.474;2022-10-03T02:07:42;18.70;;;15.27;;
846;SDS011;410;48.954;9.474;2022-10-03T02:09:50;18.83;;;14.23;;
846;SDS011;410;48.954;9.474;2022-10-03T02:12:01;20.33;;;14.77;;
846;SDS011;410;48.954;9.474;2022-10-03T02:14:16;18.23;;;14.63;;
846;SDS011;410;48.954;9.474;2022-10-03T02:16:28;18.83;;;15.20;;
846;SDS011;410;48.954;9.474;2022-10-03T02:18:38;20.60;;;14.87;;
846;SDS011;410;48.954;9.474;2022-10-03T02:20:46;20.00;;;14.97;;
846;SDS011;410;48.954;9.474;2022-10-03T02:22:51;19.20;;;14.43;;
846;SDS011;410;48.954;9.474;2022-10-03T02:24:59;20.80;;;14.70;;
846;SDS011;410;48.954;9.474;2022-10-03T02:29:48;18.87;;;15.13;;
846;SDS011;410;48.954;9.474;2022-10-03T02:35:07;20.47;;;13.60;;
846;SDS011;410;48.954;9.474;2022-10-03T02:37:24;20.37;;;14.47;;
846;SDS011;410;48.954;9.474;2022-10-03T02:47:28;19.40;;;14.50;;
846;SDS011;410;48.954;9.474;2022-10-03T02:50:13;19.93;;;14.03;;
846;SDS011;410;48.954;9.474;2022-10-03T02:52:38;21.40;;;14.63;;
846;SDS011;410;48.954;9.474;2022-10-03T02:55:13;20.17;;;15.00;;
846;SDS011;410;48.954;9.474;2022-10-03T03:00:05;22.13;;;15.47;;
846;SDS011;410;48.954;9.474;2022-10-03T03:02:21;24.23;;;16.40;;
846;SDS011;410;48.954;9.474;2022-10-03T03:04:38;21.93;;;16.83;;
846;SDS011;410;48.954;9.474;2022-10-03T03:06:57;24.67;;;16.93;;
846;SDS011;410;48.954;9.474;2022-10-03T03:12:11;21.73;;;15.47;;
846;SDS011;410;48.954;9.474;2022-10-03T03:17:10;22.30;;;15.27;;
846;SDS011;410;48.954;9.474;2022-10-03T03:19:28;24.67;;;17.30;;
846;SDS011;410;48.954;9.474;2022-10-03T03:21:50;20.37;;;14.70;;
846;SDS011;410;48.954;9.474;2022-10-03T03:26:50;20.83;;;15.33;;
846;SDS011;410;48.954;9.474;2022-10-03T03:29:12;22.63;;;15.83;;
846;SDS011;410;48.954;9.474;2022-10-03T03:31:23;23.47;;;15.53;;
846;SDS011;410;48.954;9.474;2022-10-03T03:33:33;23.00;;;16.33;;
846;SDS011;410;48.954;9.474;2022-10-03T03:35:45;20.60;;;15.50;;
846;SDS011;410;48.954;9.474;2022-10-03T03:38:00;27.43;;;16.27;;
846;SDS011;410;48.954;9.474;2022-10-03T03:40:13;25.23;;;16.50;;
846;SDS011;410;48.954;9.474;2022-10-03T03:42:36;22.07;;;17.10;;
846;SDS011;410;48.954;9.474;2022-10-03T03:45:02;26.87;;;17.77;;
846;SDS011;410;48.954;9.474;2022-10-03T03:47:11;25.10;;;17.60;;
846;SDS011;410;48.954;9.474;2022-10-03T03:49:28;22.57;;;16.83;;
846;SDS011;410;48.954;9.474;2022-10-03T03:51:36;26.70;;;16.47;;
846;SDS011;410;48.954;9.474;2022-10-03T03:56:25;21.50;;;15.33;;
846;SDS011;410;48.954;9.474;2022-10-03T03:58:36;23.30;;;16.33;;
846;SDS011;410;48.954;9.474;2022-10-03T04:00:47;25.90;;;17.30;;
846;SDS011;410;48.954;9.474;2022-10-03T04:03:13;26.47;;;18.00;;
846;SDS011;410;48.954;9.474;2022-10-03T04:05:26;24.17;;;15.77;;
846;SDS011;410;48.954;9.474;2022-10-03T04:07:44;23.23;;;17.10;;
846;SDS011;410;48.954;9.474;2022-10-03T04:10:02;25.50;;;16.27;;
846;SDS011;410;48.954;9.474;2022-10-03T04:12:28;23.37;;;15.60;;
846;SDS011;410;48.954;9.474;2022-10-03T04:14:43;22.07;;;16.47;;
846;SDS011;410;48.954;9.474;2022-10-03T04:17:05;23.63;;;16.83;;
846;SDS011;410;48.954;9.474;2022-10-03T04:19:40;20.13;;;15.13;;
846;SDS011;410;48.954;9.474;2022-10-03T04:21:52;24.50;;;15.97;;
846;SDS011;410;48.954;9.474;2022-10-03T04:24:04;23.33;;;15.97;;
846;SDS011;410;48.954;9.474;2022-10-03T04:26:21;22.93;;;16.43;;
846;SDS011;410;48.954;9.474;2022-10-03T04:28:37;22.83;;;15.57;;
846;SDS011;410;48.954;9.474;2022-10-03T04:30:50;20.40;;;16.10;;
846;SDS011;410;48.954;9.474;2022-10-03T04:33:02;20.63;;;15.53;;
846;SDS011;410;48.954;9.474;2022-10-03T04:35:15;23.27;;;15.60;;
846;SDS011;410;48.954;9.474;2022-10-03T04:37:30;22.23;;;15.97;;
846;SDS011;410;48.954;9.474;2022-10-03T04:39:34;21.63;;;15.97;;
846;SDS011;410;48.954;9.474;2022-10-03T04:41:41;22.50;;;15.73;;
846;SDS011;410;48.954;9.474;2022-10-03T04:43:51;23.10;;;15.90;;
846;SDS011;410;48.954;9.474;2022-10-03T04:46:07;18.80;;;14.50;;
846;SDS011;410;48.954;9.474;2022-10-03T04:48:17;20.93;;;14.90;;
846;SDS011;410;48.954;9.474;2022-10-03T04:50:30;21.50;;;14.23;;
846;SDS011;410;48.954;9.474;2022-10-03T04:52:40;22.87;;;15.27;;
846;SDS011;410;48.954;9.474;2022-10-03T04:54:46;23.73;;;15.00;;
846;SDS011;410;48.954;9.474;2022-10-03T04:56:57;25.13;;;14.60;;
846;SDS011;410;48.954;9.474;2022-10-03T04:59:07;19.10;;;14.40;;
846;SDS011;410;48.954;9.474;2022-10-03T05:01:14;22.10;;;14.77;;
846;SDS011;410;48.954;9.474;2022-10-03T05:03:25;21.90;;;14.17;;
846;SDS011;410;48.954;9.474;2022-10-03T05:05:42;19.00;;;13.53;;
846;SDS011;410;48.954;9.474;2022-10-03T05:07:52;19.50;;;14.23;;
846;SDS011;410;48.954;9.474;2022-10-03T05:10:01;22.17;;;15.00;;
846;SDS011;410;48.954;9.474;2022-10-03T05:12:20;21.13;;;14.33;;
846;SDS011;410;48.954;9.474;2022-10-03T05:14:43;22.67;;;14.70;;
846;SDS011;410;48.954;9.474;2022-10-03T05:16:54;15.30;;;11.80;;
846;SDS011;410;48.954;9.474;2022-10-03T05:19:02;20.60;;;13.20;;
846;SDS011;410;48.954;9.474;2022-10-03T05:21:12;18.50;;;14.03;;
846;SDS011;410;48.954;9.474;2022-10-03T05:23:19;24.23;;;15.00;;
846;SDS011;410;48.954;9.474;2022-10-03T05:25:28;22.77;;;14.67;;
846;SDS011;410;48.954;9.474;2022-10-03T05:27:39;22.90;;;15.20;;
846;SDS011;410;48.954;9.474;2022-10-03T05:29:49;27.23;;;15.03;;
846;SDS011;410;48.954;9.474;2022-10-03T05:31:58;23.50;;;15.63;;
846;SDS011;410;48.954;9.474;2022-10-03T05:34:10;21.60;;;14.60;;
846;SDS011;410;48.954;9.474;2022-10-03T05:36:26;21.17;;;14.70;;
846;SDS011;410;48.954;9.474;2022-10-03T05:41:22;21.97;;;14.23;;
846;SDS011;410;48.954;9.474;2022-10-03T05:43:31;20.43;;;14.07;;
846;SDS011;410;48.954;9.474;2022-10-03T05:45:46;44.23;;;14.73;;
846;SDS011;410;48.954;9.474;2022-10-03T05:47:51;127.23;;;20.27;;
846;SDS011;410;48.954;9.474;2022-10-03T05:53:00;69.87;;;17.50;;
846;SDS011;410;48.954;9.474;2022-10-03T05:55:12;68.50;;;17.20;;
846;SDS011;410;48.954;9.474;2022-10-03T05:57:30;57.37;;;17.20;;
846;SDS011;410;48.954;9.474;2022-10-03T05:59:50;50.90;;;14.47;;
846;SDS011;410;48.954;9.474;2022-10-03T06:02:21;34.80;;;13.97;;
846;SDS011;410;48.954;9.474;2022-10-03T06:05:00;56.00;;;15.50;;
846;SDS011;410;48.954;9.474;2022-10-03T06:07:13;69.07;;;14.53;;
846;SDS011;410;48.954;9.474;2022-10-03T06:09:28;96.57;;;14.37;;
846;SDS011;410;48.954;9.474;2022-10-03T06:11:45;65.33;;;13.50;;
846;SDS011;410;48.954;9.474;2022-10-03T06:14:04;85.80;;;13.63;;
846;SDS011;410;48.954;9.474;2022-10-03T06:16:23;49.17;;;12.77;;
846;SDS011;410;48.954;9.474;2022-10-03T06:18:35;29.60;;;11.50;;
846;SDS011;410;48.954;9.474;2022-10-03T06:21:03;42.90;;;12.90;;
846;SDS011;410;48.954;9.474;2022-10-03T06:23:20;40.27;;;13.07;;
846;SDS011;410;48.954;9.474;2022-10-03T06:30:56;41.57;;;12.87;;
846;SDS011;410;48.954;9.474;2022-10-03T06:33:29;37.40;;;12.87;;
846;SDS011;410;48.954;9.474;2022-10-03T06:36:10;23.20;;;11.23;;
846;SDS011;410;48.954;9.474;2022-10-03T06:41:31;18.37;;;11.43;;
846;SDS011;410;48.954;9.474;2022-10-03T06:43:56;16.07;;;11.93;;
846;SDS011;410;48.954;9.474;2022-10-03T06:48:58;22.23;;;12.33;;
846;SDS011;410;48.954;9.474;2022-10-03T06:51:18;19.90;;;13.60;;
846;SDS011;410;48.954;9.474;2022-10-03T06:53:42;18.07;;;12.60;;
846;SDS011;410;48.954;9.474;2022-10-03T06:56:11;35.47;;;29.63;;
846;SDS011;410;48.954;9.474;2022-10-03T06:58:36;19.90;;;17.80;;
846;SDS011;410;48.954;9.474;2022-10-03T07:04:20;17.70;;;12.30;;
846;SDS011;410;48.954;9.474;2022-10-03T07:06:35;18.60;;;13.70;;
846;SDS011;410;48.954;9.474;2022-10-03T07:11:34;17.43;;;13.63;;
846;SDS011;410;48.954;9.474;2022-10-03T07:13:51;15.73;;;12.10;;
846;SDS011;410;48.954;9.474;2022-10-03T07:19:09;16.53;;;12.80;;
846;SDS011;410;48.954;9.474;2022-10-03T07:21:25;20.17;;;13.40;;
846;SDS011;410;48.954;9.474;2022-10-03T07:23:47;18.10;;;13.10;;
846;SDS011;410;48.954;9.474;2022-10-03T07:26:43;20.33;;;12.73;;
846;SDS011;410;48.954;9.474;2022-10-03T07:29:00;16.03;;;12.10;;
846;SDS011;410;48.954;9.474;2022-10-03T07:31:12;18.97;;;12.67;;
846;SDS011;410;48.954;9.474;2022-10-03T07:33:28;16.33;;;10.20;;
846;SDS011;410;48.954;9.474;2022-10-03T07:35:41;12.50;;;8.20;;
846;SDS011;410;48.954;9.474;2022-10-03T07:40:44;16.90;;;10.77;;
846;SDS011;410;48.954;9.474;2022-10-03T07:43:06;15.80;;;9.47;;
846;SDS011;410;48.954;9.474;2022-10-03T07:45:30;12.33;;;8.80;;
846;SDS011;410;48.954;9.474;2022-10-03T07:47:51;12.67;;;8.47;;
846;SDS011;410;48.954;9.474;2022-10-03T07:50:40;14.70;;;9.20;;
846;SDS011;410;48.954;9.474;2022-10-03T07:53:01;10.80;;;7.67;;
846;SDS011;410;48.954;9.474;2022-10-03T07:55:22;11.17;;;8.40;;
846;SDS011;410;48.954;9.474;2022-10-03T07:57:40;17.40;;;10.10;;
846;SDS011;410;48.954;9.474;2022-10-03T08:00:03;14.13;;;11.17;;
846;SDS011;410;48.954;9.474;2022-10-03T08:02:23;17.87;;;13.20;;
846;SDS011;410;48.954;9.474;2022-10-03T08:04:48;14.57;;;9.47;;
846;SDS011;410;48.954;9.474;2022-10-03T08:07:10;13.47;;;9.47;;
846;SDS011;410;48.954;9.474;2022-10-03T08:14:39;13.30;;;9.20;;
846;SDS011;410;48.954;9.474;2022-10-03T08:17:01;13.63;;;9.03;;
846;SDS011;410;48.954;9.474;2022-10-03T08:19:36;13.53;;;8.73;;
846;SDS011;410;48.954;9.474;2022-10-03T08:21:55;12.23;;;9.63;;
846;SDS011;410;48.954;9.474;2022-10-03T08:24:06;14.30;;;10.90;;
846;SDS011;410;48.954;9.474;2022-10-03T08:26:16;11.03;;;8.93;;
846;SDS011;410;48.954;9.474;2022-10-03T08:28:24;13.93;;;10.60;;
846;SDS011;410;48.954;9.474;2022-10-03T08:30:40;14.77;;;11.10;;
846;SDS011;410;48.954;9.474;2022-10-03T08:33:01;17.90;;;10.23;;
846;SDS011;410;48.954;9.474;2022-10-03T08:35:31;18.27;;;11.30;;
846;SDS011;410;48.954;9.474;2022-10-03T08:37:58;17.40;;;11.00;;
846;SDS011;410;48.954;9.474;2022-10-03T08:42:56;23.40;;;11.77;;
846;SDS011;410;48.954;9.474;2022-10-03T08:45:40;20.20;;;11.30;;
846;SDS011;410;48.954;9.474;2022-10-03T08:53:12;15.43;;;9.97;;
846;SDS011;410;48.954;9.474;2022-10-03T08:55:44;17.23;;;10.17;;
846;SDS011;410;48.954;9.474;2022-10-03T09:00:32;17.93;;;9.77;;
846;SDS011;410;48.954;9.474;2022-10-03T09:08:26;12.47;;;8.67;;
846;SDS011;410;48.954;9.474;2022-10-03T09:13:14;14.67;;;9.43;;
846;SDS011;410;48.954;9.474;2022-10-03T09:16:12;13.53;;;8.80;;
846;SDS011;410;48.954;9.474;2022-10-03T09:18:43;14.53;;;8.00;;
846;SDS011;410;48.954;9.474;2022-10-03T09:21:13;14.00;;;8.20;;
846;SDS011;410;48.954;9.474;2022-10-03T09:23:43;11.20;;;7.63;;
846;SDS011;410;48.954;9.474;2022-10-03T09:26:04;12.87;;;7.60;;
846;SDS011;410;48.954;9.474;2022-10-03T09:30:51;10.10;;;6.60;;
846;SDS011;410;48.954;9.474;2022-10-03T09:33:02;14.50;;;6.90;;
846;SDS011;410;48.954;9.474;2022-10-03T09:35:34;13.70;;;6.77;;
846;SDS011;410;48.954;9.474;2022-10-03T09:37:52;11.50;;;7.23;;
846;SDS011;410;48.954;9.474;2022-10-03T09:40:16;13.40;;;7.10;;
846;SDS011;410;48.954;9.474;2022-10-03T09:45:05;14.53;;;7.57;;
846;SDS011;410;48.954;9.474;2022-10-03T09:50:07;14.93;;;7.37;;
846;SDS011;410;48.954;9.474;2022-10-03T09:52:32;12.33;;;7.13;;
846;SDS011;410;48.954;9.474;2022-10-03T09:54:48;13.03;;;7.73;;
846;SDS011;410;48.954;9.474;2022-10-03T09:57:17;10.17;;;6.17;;
846;SDS011;410;48.954;9.474;2022-10-03T09:59:44;15.47;;;6.67;;
846;SDS011;410;48.954;9.474;2022-10-03T10:01:55;14.20;;;7.10;;
846;SDS011;410;48.954;9.474;2022-10-03T10:09:38;16.30;;;7.30;;
846;SDS011;410;48.954;9.474;2022-10-03T10:14:35;12.63;;;6.40;;
846;SDS011;410;48.954;9.474;2022-10-03T10:16:49;11.17;;;7.10;;
846;SDS011;410;48.954;9.474;2022-10-03T10:19:18;10.60;;;7.60;;
846;SDS011;410;48.954;9.474;2022-10-03T10:21:39;15.93;;;8.07;;
846;SDS011;410;48.954;9.474;2022-10-03T10:23:51;14.27;;;7.70;;
846;SDS011;410;48.954;9.474;2022-10-03T10:31:58;10.03;;;7.00;;
846;SDS011;410;48.954;9.474;2022-10-03T10:37:25;10.53;;;7.30;;
846;SDS011;410;48.954;9.474;2022-10-03T10:40:07;11.47;;;6.80;;
846;SDS011;410;48.954;9.474;2022-10-03T10:42:31;12.50;;;6.80;;
846;SDS011;410;48.954;9.474;2022-10-03T10:48:05;8.33;;;5.17;;
846;SDS011;410;48.954;9.474;2022-10-03T10:55:49;10.57;;;5.50;;
846;SDS011;410;48.954;9.474;2022-10-03T11:01:26;8.73;;;4.97;;
846;SDS011;410;48.954;9.474;2022-10-03T11:12:13;9.23;;;5.60;;
846;SDS011;410;48.954;9.474;2022-10-03T11:15:04;6.60;;;5.30;;
846;SDS011;410;48.954;9.474;2022-10-03T11:20:24;9.17;;;5.57;;
846;SDS011;410;48.954;9.474;2022-10-03T11:22:54;8.70;;;5.90;;
846;SDS011;410;48.954;9.474;2022-10-03T11:25:35;9.03;;;5.80;;
846;SDS011;410;48.954;9.474;2022-10-03T11:28:17;8.03;;;5.53;;
846;SDS011;410;48.954;9.474;2022-10-03T11:36:10;8.27;;;5.30;;
846;SDS011;410;48.954;9.474;2022-10-03T11:38:51;14.17;;;5.97;;
846;SDS011;410;48.954;9.474;2022-10-03T11:41:00;9.33;;;5.97;;
846;SDS011;410;48.954;9.474;2022-10-03T11:43:37;10.10;;;6.03;;
846;SDS011;410;48.954;9.474;2022-10-03T11:45:48;11.30;;;7.03;;
846;SDS011;410;48.954;9.474;2022-10-03T11:47:55;13.07;;;7.70;;
846;SDS011;410;48.954;9.474;2022-10-03T11:50:20;10.20;;;7.40;;
846;SDS011;410;48.954;9.474;2022-10-03T11:52:30;11.13;;;7.70;;
846;SDS011;410;48.954;9.474;2022-10-03T11:54:36;11.37;;;7.30;;
846;SDS011;410;48.954;9.474;2022-10-03T11:56:41;11.60;;;6.77;;
846;SDS011;410;48.954;9.474;2022-10-03T11:58:52;13.97;;;7.50;;
846;SDS011;410;48.954;9.474;2022-10-03T12:01:01;12.43;;;7.77;;
846;SDS011;410;48.954;9.474;2022-10-03T12:03:23;9.47;;;6.33;;
846;SDS011;410;48.954;9.474;2022-10-03T12:05:35;10.23;;;7.33;;
846;SDS011;410;48.954;9.474;2022-10-03T12:07:45;13.63;;;7.27;;
846;SDS011;410;48.954;9.474;2022-10-03T12:10:10;10.53;;;7.70;;
846;SDS011;410;48.954;9.474;2022-10-03T12:12:20;10.83;;;7.00;;
846;SDS011;410;48.954;9.474;2022-10-03T12:14:33;13.27;;;7.93;;
846;SDS011;410;48.954;9.474;2022-10-03T12:16:43;13.23;;;8.20;;
846;SDS011;410;48.954;9.474;2022-10-03T12:18:56;10.90;;;7.03;;
846;SDS011;410;48.954;9.474;2022-10-03T12:21:06;12.20;;;8.73;;
846;SDS011;410;48.954;9.474;2022-10-03T12:23:15;11.87;;;6.07;;
846;SDS011;410;48.954;9.474;2022-10-03T12:25:26;11.80;;;6.53;;
846;SDS011;410;48.954;9.474;2022-10-03T12:27:34;7.67;;;5.40;;
846;SDS011;410;48.954;9.474;2022-10-03T12:29:42;10.30;;;5.87;;
846;SDS011;410;48.954;9.474;2022-10-03T12:31:52;9.33;;;6.50;;
846;SDS011;410;48.954;9.474;2022-10-03T12:34:04;12.07;;;6.57;;
846;SDS011;410;48.954;9.474;2022-10-03T12:36:22;10.37;;;5.93;;
846;SDS011;410;48.954;9.474;2022-10-03T12:38:32;7.83;;;5.57;;
846;SDS011;410;48.954;9.474;2022-10-03T12:40:52;11.70;;;6.30;;
846;SDS011;410;48.954;9.474;2022-10-03T12:43:08;10.07;;;5.73;;
846;SDS011;410;48.954;9.474;2022-10-03T12:45:25;7.67;;;5.30;;
846;SDS011;410;48.954;9.474;2022-10-03T12:47:36;8.50;;;4.53;;
846;SDS011;410;48.954;9.474;2022-10-03T12:49:57;14.40;;;6.13;;
846;SDS011;410;48.954;9.474;2022-10-03T12:52:05;6.73;;;4.90;;
846;SDS011;410;48.954;9.474;2022-10-03T12:54:19;11.97;;;5.70;;
846;SDS011;410;48.954;9.474;2022-10-03T12:56:32;8.93;;;5.30;;
846;SDS011;410;48.954;9.474;2022-10-03T12:58:48;9.03;;;4.90;;
846;SDS011;410;48.954;9.474;2022-10-03T13:00:56;12.17;;;4.93;;
846;SDS011;410;48.954;9.474;2022-10-03T13:03:10;10.60;;;5.00;;
846;SDS011;410;48.954;9.474;2022-10-03T13:05:29;6.53;;;4.73;;
846;SDS011;410;48.954;9.474;2022-10-03T13:07:38;11.47;;;5.27;;
846;SDS011;410;48.954;9.474;2022-10-03T13:12:22;9.60;;;5.00;;
846;SDS011;410;48.954;9.474;2022-10-03T13:14:41;9.30;;;5.60;;
846;SDS011;410;48.954;9.474;2022-10-03T13:17:06;6.73;;;4.83;;
846;SDS011;410;48.954;9.474;2022-10-03T13:19:15;8.57;;;5.63;;
846;SDS011;410;48.954;9.474;2022-10-03T13:21:22;11.43;;;6.53;;
846;SDS011;410;48.954;9.474;2022-10-03T13:23:49;8.23;;;4.87;;
846;SDS011;410;48.954;9.474;2022-10-03T13:25:55;6.70;;;4.80;;
846;SDS011;410;48.954;9.474;2022-10-03T13:28:13;7.10;;;4.73;;
846;SDS011;410;48.954;9.474;2022-10-03T13:30:19;8.17;;;4.83;;
846;SDS011;410;48.954;9.474;2022-10-03T13:32:28;7.87;;;5.13;;
846;SDS011;410;48.954;9.474;2022-10-03T13:34:35;10.93;;;4.80;;
846;SDS011;410;48.954;9.474;2022-10-03T13:36:46;10.70;;;5.10;;
846;SDS011;410;48.954;9.474;2022-10-03T13:41:16;6.93;;;4.60;;
846;SDS011;410;48.954;9.474;2022-10-03T13:43:27;7.47;;;4.50;;
846;SDS011;410;48.954;9.474;2022-10-03T13:45:36;6.57;;;4.10;;
846;SDS011;410;48.954;9.474;2022-10-03T13:47:45;8.13;;;4.93;;
846;SDS011;410;48.954;9.474;2022-10-03T13:49:53;9.57;;;4.20;;
846;SDS011;410;48.954;9.474;2022-10-03T13:51:59;5.93;;;4.43;;
846;SDS011;410;48.954;9.474;2022-10-03T13:54:08;7.97;;;4.47;;
846;SDS011;410;48.954;9.474;2022-10-03T13:56:14;6.90;;;4.80;;
846;SDS011;410;48.954;9.474;2022-10-03T13:58:27;7.33;;;5.27;;
846;SDS011;410;48.954;9.474;2022-10-03T14:00:39;7.77;;;5.00;;
846;SDS011;410;48.954;9.474;2022-10-03T14:02:58;5.30;;;4.43;;
846;SDS011;410;48.954;9.474;2022-10-03T14:05:24;9.63;;;4.80;;
846;SDS011;410;48.954;9.474;2022-10-03T14:07:37;8.30;;;4.10;;
846;SDS011;410;48.954;9.474;2022-10-03T14:09:49;7.00;;;4.47;;
846;SDS011;410;48.954;9.474;2022-10-03T14:12:04;6.00;;;4.07;;
846;SDS011;410;48.954;9.474;2022-10-03T14:16:46;7.90;;;4.80;;
846;SDS011;410;48.954;9.474;2022-10-03T14:18:58;11.10;;;5.27;;
846;SDS011;410;48.954;9.474;2022-10-03T14:21:22;8.50;;;4.80;;
846;SDS011;410;48.954;9.474;2022-10-03T14:23:34;8.50;;;5.03;;
846;SDS011;410;48.954;9.474;2022-10-03T14:25:41;10.53;;;5.53;;
846;SDS011;410;48.954;9.474;2022-10-03T14:27:51;8.95;;;5.20;;
846;SDS011;410;48.954;9.474;2022-10-03T14:29:57;9.13;;;4.87;;
846;SDS011;410;48.954;9.474;2022-10-03T14:32:08;5.10;;;3.87;;
846;SDS011;410;48.954;9.474;2022-10-03T14:34:41;7.27;;;4.23;;
846;SDS011;410;48.954;9.474;2022-10-03T14:36:49;10.13;;;4.68;;
846;SDS011;410;48.954;9.474;2022-10-03T14:39:18;6.30;;;4.53;;
846;SDS011;410;48.954;9.474;2022-10-03T14:41:37;7.83;;;4.70;;
846;SDS011;410;48.954;9.474;2022-10-03T14:43:46;9.37;;;6.20;;
846;SDS011;410;48.954;9.474;2022-10-03T14:45:52;8.27;;;5.73;;
846;SDS011;410;48.954;9.474;2022-10-03T14:47:59;7.33;;;5.53;;
846;SDS011;410;48.954;9.474;2022-10-03T14:50:14;8.20;;;4.80;;
846;SDS011;410;48.954;9.474;2022-10-03T14:52:22;10.23;;;5.60;;
846;SDS011;410;48.954;9.474;2022-10-03T14:54:29;8.80;;;5.53;;
846;SDS011;410;48.954;9.474;2022-10-03T14:56:40;8.03;;;5.53;;
846;SDS011;410;48.954;9.474;2022-10-03T14:58:45;7.57;;;5.07;;
846;SDS011;410;48.954;9.474;2022-10-03T15:00:51;7.67;;;5.17;;
846;SDS011;410;48.954;9.474;2022-10-03T15:02:55;12.43;;;5.67;;
846;SDS011;410;48.954;9.474;2022-10-03T15:05:00;7.93;;;5.50;;
846;SDS011;410;48.954;9.474;2022-10-03T15:07:09;6.97;;;5.40;;
846;SDS011;410;48.954;9.474;2022-10-03T15:09:15;11.00;;;5.50;;
846;SDS011;410;48.954;9.474;2022-10-03T15:11:22;11.40;;;5.80;;
846;SDS011;410;48.954;9.474;2022-10-03T15:13:27;11.17;;;6.40;;
846;SDS011;410;48.954;9.474;2022-10-03T15:15:36;14.63;;;8.30;;
846;SDS011;410;48.954;9.474;2022-10-03T15:17:42;13.63;;;8.07;;
846;SDS011;410;48.954;9.474;2022-10-03T15:19:49;9.43;;;6.13;;
846;SDS011;410;48.954;9.474;2022-10-03T15:21:57;7.93;;;6.53;;
846;SDS011;410;48.954;9.474;2022-10-03T15:24:07;11.43;;;7.93;;
846;SDS011;410;48.954;9.474;2022-10-03T15:26:14;9.70;;;8.23;;
846;SDS011;410;48.954;9.474;2022-10-03T15:28:20;12.80;;;9.40;;
846;SDS011;410;48.954;9.474;2022-10-03T15:30:25;11.20;;;7.87;;
846;SDS011;410;48.954;9.474;2022-10-03T15:32:33;14.77;;;8.60;;
846;SDS011;410;48.954;9.474;2022-10-03T15:34:38;12.60;;;8.20;;
846;SDS011;410;48.954;9.474;2022-10-03T15:36:44;8.20;;;7.23;;
846;SDS011;410;48.954;9.474;2022-10-03T15:38:50;8.73;;;6.33;;
846;SDS011;410;48.954;9.474;2022-10-03T15:41:05;8.37;;;6.50;;
846;SDS011;410;48.954;9.474;2022-10-03T15:43:16;11.33;;;6.70;;
846;SDS011;410;48.954;9.474;2022-10-03T15:45:30;9.43;;;6.73;;
846;SDS011;410;48.954;9.474;2022-10-03T15:47:34;7.33;;;5.73;;
846;SDS011;410;48.954;9.474;2022-10-03T15:49:43;13.93;;;8.50;;
846;SDS011;410;48.954;9.474;2022-10-03T15:51:50;14.30;;;10.30;;
846;SDS011;410;48.954;9.474;2022-10-03T15:53:55;55.73;;;37.93;;
846;SDS011;410;48.954;9.474;2022-10-03T15:56:04;17.40;;;12.33;;
846;SDS011;410;48.954;9.474;2022-10-03T15:58:14;15.00;;;8.90;;
846;SDS011;410;48.954;9.474;2022-10-03T16:00:20;5.97;;;4.83;;
846;SDS011;410;48.954;9.474;2022-10-03T16:02:26;10.23;;;5.60;;
846;SDS011;410;48.954;9.474;2022-10-03T16:04:34;9.47;;;6.70;;
846;SDS011;410;48.954;9.474;2022-10-03T16:06:42;10.97;;;7.37;;
846;SDS011;410;48.954;9.474;2022-10-03T16:08:55;11.93;;;7.57;;
846;SDS011;410;48.954;9.474;2022-10-03T16:11:03;11.00;;;6.50;;
846;SDS011;410;48.954;9.474;2022-10-03T16:13:16;9.63;;;6.30;;
846;SDS011;410;48.954;9.474;2022-10-03T16:15:27;8.10;;;6.00;;
846;SDS011;410;48.954;9.474;2022-10-03T16:17:40;11.13;;;8.20;;
846;SDS011;410;48.954;9.474;2022-10-03T16:19:48;10.83;;;7.57;;
846;SDS011;410;48.954;9.474;2022-10-03T16:21:55;12.77;;;7.50;;
846;SDS011;410;48.954;9.474;2022-10-03T16:24:07;10.30;;;6.70;;
846;SDS011;410;48.954;9.474;2022-10-03T16:26:20;10.17;;;6.40;;
846;SDS011;410;48.954;9.474;2022-10-03T16:28:27;8.70;;;6.00;;
846;SDS011;410;48.954;9.474;2022-10-03T16:30:33;9.93;;;5.70;;
846;SDS011;410;48.954;9.474;2022-10-03T16:32:41;8.70;;;5.40;;
846;SDS011;410;48.954;9.474;2022-10-03T16:34:47;9.77;;;6.10;;
846;SDS011;410;48.954;9.474;2022-10-03T16:36:51;7.97;;;5.83;;
846;SDS011;410;48.954;9.474;2022-10-03T16:38:55;12.30;;;5.83;;
846;SDS011;410;48.954;9.474;2022-10-03T16:41:01;8.20;;;6.10;;
846;SDS011;410;48.954;9.474;2022-10-03T16:43:05;7.43;;;6.60;;
846;SDS011;410;48.954;9.474;2022-10-03T16:45:19;7.70;;;6.80;;